sensor_id;sensor_type;location;lat;lon;timestamp;P1;durP1;ratioP1;P2;durP2;ratioP2
25107;SDS011;13090;53.422;7.670;2022-10-16T00:00:00;4.10;;;1.13;;
25107;SDS011;13090;53.422;7.670;2022-10-16T00:05:07;1.70;;;1.08;;
25107;SDS011;13090;53.422;7.670;2022-10-16T00:10:10;2.58;;;0.98;;
25107;SDS011;13090;53.422;7.670;2022-10-16T00:15:13;2.75;;;1.15;;
25107;SDS011;13090;53.422;7.670;2022-10-16T00:20:26;4.95;;;1.33;;
25107;SDS011;13090;53.422;7.670;2022-10-16T00:25:28;7.15;;;1.30;;
25107;SDS011;13090;53.422;7.670;2022-10-16T00:30:37;4.90;;;1.50;;
25107;SDS011;13090;53.422;7.670;2022-10-16T00:35:54;5.07;;;1.58;;
25107;SDS011;13090;53.422;7.670;2022-10-16T00:40:59;5.60;;;1.20;;
25107;SDS011;13090;53.422;7.670;2022-10-16T00:46:03;4.05;;;1.30;;
25107;SDS011;13090;53.422;7.670;2022-10-16T00:51:14;5.97;;;1.50;;
25107;SDS011;13090;53.422;7.670;2022-10-16T00:56:25;3.10;;;1.38;;
25107;SDS011;13090;53.422;7.670;2022-10-16T01:01:27;3.90;;;1.52;;
25107;SDS011;13090;53.422;7.670;2022-10-16T01:06:36;3.83;;;1.33;;
25107;SDS011;13090;53.422;7.670;2022-10-16T01:11:48;4.68;;;1.45;;
25107;SDS011;13090;53.422;7.670;2022-10-16T01:17:02;4.13;;;1.38;;
25107;SDS011;13090;53.422;7.670;2022-10-16T01:22:12;3.88;;;1.30;;
25107;SDS011;13090;53.422;7.670;2022-10-16T01:27:20;5.05;;;1.40;;
25107;SDS011;13090;53.422;7.670;2022-10-16T01:32:28;4.15;;;1.30;;
25107;SDS011;13090;53.422;7.670;2022-10-16T01:37:40;2.53;;;1.17;;
25107;SDS011;13090;53.422;7.670;2022-10-16T01:42:52;3.10;;;1.40;;
25107;SDS011;13090;53.422;7.670;2022-10-16T01:47:58;6.90;;;1.35;;
25107;SDS011;13090;53.422;7.670;2022-10-16T01:53:12;2.58;;;1.27;;
25107;SDS011;13090;53.422;7.670;2022-10-16T01:58:21;3.28;;;1.25;;
25107;SDS011;13090;53.422;7.670;2022-10-16T02:03:26;3.20;;;1.05;;
25107;SDS011;13090;53.422;7.670;2022-10-16T02:08:29;2.53;;;1.50;;
25107;SDS011;13090;53.422;7.670;2022-10-16T02:13:35;4.95;;;1.27;;
25107;SDS011;13090;53.422;7.670;2022-10-16T02:18:44;4.72;;;1.63;;
25107;SDS011;13090;53.422;7.670;2022-10-16T02:23:55;5.07;;;1.77;;
25107;SDS011;13090;53.422;7.670;2022-10-16T02:29:10;3.40;;;1.90;;
25107;SDS011;13090;53.422;7.670;2022-10-16T02:34:21;7.20;;;1.70;;
25107;SDS011;13090;53.422;7.670;2022-10-16T02:39:28;5.10;;;1.73;;
25107;SDS011;13090;53.422;7.670;2022-10-16T02:44:32;5.43;;;1.30;;
25107;SDS011;13090;53.422;7.670;2022-10-16T02:49:38;5.75;;;1.25;;
25107;SDS011;13090;53.422;7.670;2022-10-16T02:54:40;2.83;;;1.40;;
25107;SDS011;13090;53.422;7.670;2022-10-16T02:59:53;5.07;;;1.40;;
25107;SDS011;13090;53.422;7.670;2022-10-16T03:09:58;3.33;;;1.40;;
25107;SDS011;13090;53.422;7.670;2022-10-16T03:15:11;6.35;;;1.60;;
25107;SDS011;13090;53.422;7.670;2022-10-16T03:20:44;4.05;;;1.27;;
25107;SDS011;13090;53.422;7.670;2022-10-16T03:25:55;1.75;;;1.20;;
25107;SDS011;13090;53.422;7.670;2022-10-16T03:37:02;3.33;;;1.52;;
25107;SDS011;13090;53.422;7.670;2022-10-16T03:42:14;4.05;;;1.40;;
25107;SDS011;13090;53.422;7.670;2022-10-16T03:47:19;8.88;;;1.70;;
25107;SDS011;13090;53.422;7.670;2022-10-16T03:52:29;2.65;;;1.35;;
25107;SDS011;13090;53.422;7.670;2022-10-16T03:57:36;3.88;;;1.50;;
25107;SDS011;13090;53.422;7.670;2022-10-16T04:02:47;2.63;;;1.50;;
25107;SDS011;13090;53.422;7.670;2022-10-16T04:07:58;3.67;;;1.30;;
25107;SDS011;13090;53.422;7.670;2022-10-16T04:13:09;6.57;;;1.38;;
25107;SDS011;13090;53.422;7.670;2022-10-16T04:18:16;3.25;;;1.20;;
25107;SDS011;13090;53.422;7.670;2022-10-16T04:23:19;3.10;;;1.48;;
25107;SDS011;13090;53.422;7.670;2022-10-16T04:28:22;3.97;;;0.95;;
25107;SDS011;13090;53.422;7.670;2022-10-16T04:33:26;2.45;;;1.38;;
25107;SDS011;13090;53.422;7.670;2022-10-16T04:38:29;7.70;;;1.40;;
25107;SDS011;13090;53.422;7.670;2022-10-16T04:43:35;2.97;;;1.35;;
25107;SDS011;13090;53.422;7.670;2022-10-16T04:48:48;2.45;;;1.30;;
25107;SDS011;13090;53.422;7.670;2022-10-16T04:53:53;1.88;;;1.23;;
25107;SDS011;13090;53.422;7.670;2022-10-16T04:58:55;2.88;;;1.55;;
25107;SDS011;13090;53.422;7.670;2022-10-16T05:03:59;1.65;;;1.17;;
25107;SDS011;13090;53.422;7.670;2022-10-16T05:09:04;2.10;;;1.42;;
25107;SDS011;13090;53.422;7.670;2022-10-16T05:14:09;4.40;;;1.30;;
25107;SDS011;13090;53.422;7.670;2022-10-16T05:19:23;2.70;;;1.38;;
25107;SDS011;13090;53.422;7.670;2022-10-16T05:24:46;3.40;;;1.52;;
25107;SDS011;13090;53.422;7.670;2022-10-16T05:29:49;2.30;;;1.33;;
25107;SDS011;13090;53.422;7.670;2022-10-16T05:35:06;3.47;;;1.80;;
25107;SDS011;13090;53.422;7.670;2022-10-16T05:40:14;4.57;;;1.90;;
25107;SDS011;13090;53.422;7.670;2022-10-16T05:45:23;2.40;;;1.33;;
25107;SDS011;13090;53.422;7.670;2022-10-16T05:50:36;2.58;;;1.50;;
25107;SDS011;13090;53.422;7.670;2022-10-16T05:55:41;3.38;;;1.83;;
25107;SDS011;13090;53.422;7.670;2022-10-16T06:01:04;4.53;;;1.65;;
25107;SDS011;13090;53.422;7.670;2022-10-16T06:06:23;2.70;;;1.75;;
25107;SDS011;13090;53.422;7.670;2022-10-16T06:11:34;3.67;;;2.35;;
25107;SDS011;13090;53.422;7.670;2022-10-16T06:16:38;2.85;;;1.60;;
25107;SDS011;13090;53.422;7.670;2022-10-16T06:22:02;2.58;;;1.83;;
25107;SDS011;13090;53.422;7.670;2022-10-16T06:27:05;2.58;;;2.00;;
25107;SDS011;13090;53.422;7.670;2022-10-16T06:32:11;4.22;;;1.90;;
25107;SDS011;13090;53.422;7.670;2022-10-16T06:37:35;4.13;;;1.77;;
25107;SDS011;13090;53.422;7.670;2022-10-16T06:42:45;5.28;;;1.50;;
25107;SDS011;13090;53.422;7.670;2022-10-16T06:48:01;7.03;;;1.90;;
25107;SDS011;13090;53.422;7.670;2022-10-16T06:53:05;6.80;;;4.93;;
25107;SDS011;13090;53.422;7.670;2022-10-16T06:58:20;4.27;;;2.50;;
25107;SDS011;13090;53.422;7.670;2022-10-16T07:03:38;7.28;;;2.30;;
25107;SDS011;13090;53.422;7.670;2022-10-16T07:09:02;2.25;;;1.58;;
25107;SDS011;13090;53.422;7.670;2022-10-16T07:14:14;2.47;;;1.77;;
25107;SDS011;13090;53.422;7.670;2022-10-16T07:19:26;2.95;;;1.85;;
25107;SDS011;13090;53.422;7.670;2022-10-16T07:24:41;3.17;;;1.55;;
25107;SDS011;13090;53.422;7.670;2022-10-16T07:29:44;1.77;;;1.50;;
25107;SDS011;13090;53.422;7.670;2022-10-16T07:34:49;3.60;;;1.65;;
25107;SDS011;13090;53.422;7.670;2022-10-16T07:39:58;2.05;;;1.45;;
25107;SDS011;13090;53.422;7.670;2022-10-16T07:45:07;3.58;;;1.60;;
25107;SDS011;13090;53.422;7.670;2022-10-16T07:50:45;3.58;;;1.55;;
25107;SDS011;13090;53.422;7.670;2022-10-16T07:55:54;1.98;;;1.27;;
25107;SDS011;13090;53.422;7.670;2022-10-16T08:01:08;4.50;;;1.60;;
25107;SDS011;13090;53.422;7.670;2022-10-16T08:06:25;4.72;;;1.42;;
25107;SDS011;13090;53.422;7.670;2022-10-16T08:11:37;5.22;;;1.70;;
25107;SDS011;13090;53.422;7.670;2022-10-16T08:16:40;3.20;;;1.27;;
25107;SDS011;13090;53.422;7.670;2022-10-16T08:21:46;4.65;;;1.50;;
25107;SDS011;13090;53.422;7.670;2022-10-16T08:26:50;3.75;;;1.50;;
25107;SDS011;13090;53.422;7.670;2022-10-16T08:31:55;3.23;;;1.40;;
25107;SDS011;13090;53.422;7.670;2022-10-16T08:36:57;4.88;;;1.40;;
25107;SDS011;13090;53.422;7.670;2022-10-16T08:47:49;3.10;;;1.20;;
25107;SDS011;13090;53.422;7.670;2022-10-16T08:53:18;2.60;;;1.10;;
25107;SDS011;13090;53.422;7.670;2022-10-16T08:58:27;2.17;;;1.00;;
25107;SDS011;13090;53.422;7.670;2022-10-16T09:03:41;4.55;;;1.52;;
25107;SDS011;13090;53.422;7.670;2022-10-16T09:08:59;2.03;;;0.95;;
25107;SDS011;13090;53.422;7.670;2022-10-16T09:14:20;3.60;;;1.00;;
25107;SDS011;13090;53.422;7.670;2022-10-16T09:19:41;2.47;;;1.17;;
25107;SDS011;13090;53.422;7.670;2022-10-16T09:24:50;2.30;;;1.02;;
25107;SDS011;13090;53.422;7.670;2022-10-16T09:29:55;2.97;;;1.02;;
25107;SDS011;13090;53.422;7.670;2022-10-16T09:35:00;4.32;;;1.70;;
25107;SDS011;13090;53.422;7.670;2022-10-16T09:40:07;5.03;;;1.63;;
25107;SDS011;13090;53.422;7.670;2022-10-16T09:45:24;5.03;;;1.38;;
25107;SDS011;13090;53.422;7.670;2022-10-16T09:50:27;3.15;;;0.80;;
25107;SDS011;13090;53.422;7.670;2022-10-16T09:55:30;4.07;;;1.08;;
25107;SDS011;13090;53.422;7.670;2022-10-16T10:00:34;4.80;;;1.98;;
25107;SDS011;13090;53.422;7.670;2022-10-16T10:05:37;3.65;;;1.08;;
25107;SDS011;13090;53.422;7.670;2022-10-16T10:10:42;2.30;;;0.90;;
25107;SDS011;13090;53.422;7.670;2022-10-16T10:15:46;3.30;;;1.00;;
25107;SDS011;13090;53.422;7.670;2022-10-16T10:20:57;7.38;;;1.67;;
25107;SDS011;13090;53.422;7.670;2022-10-16T10:26:26;5.50;;;1.80;;
25107;SDS011;13090;53.422;7.670;2022-10-16T10:31:43;8.25;;;1.40;;
25107;SDS011;13090;53.422;7.670;2022-10-16T10:37:01;5.00;;;1.17;;
25107;SDS011;13090;53.422;7.670;2022-10-16T10:42:19;3.80;;;1.30;;
25107;SDS011;13090;53.422;7.670;2022-10-16T10:47:36;5.03;;;1.37;;
25107;SDS011;13090;53.422;7.670;2022-10-16T10:52:59;6.10;;;1.20;;
25107;SDS011;13090;53.422;7.670;2022-10-16T10:58:17;3.92;;;1.17;;
25107;SDS011;13090;53.422;7.670;2022-10-16T11:03:46;3.17;;;1.13;;
25107;SDS011;13090;53.422;7.670;2022-10-16T11:09:19;6.55;;;1.60;;
25107;SDS011;13090;53.422;7.670;2022-10-16T11:14:30;11.80;;;2.17;;
25107;SDS011;13090;53.422;7.670;2022-10-16T11:19:44;6.22;;;2.47;;
25107;SDS011;13090;53.422;7.670;2022-10-16T11:25:11;7.15;;;1.48;;
25107;SDS011;13090;53.422;7.670;2022-10-16T11:30:21;3.05;;;1.05;;
25107;SDS011;13090;53.422;7.670;2022-10-16T11:35:36;6.77;;;2.67;;
25107;SDS011;13090;53.422;7.670;2022-10-16T11:41:27;6.00;;;1.52;;
25107;SDS011;13090;53.422;7.670;2022-10-16T11:46:36;5.65;;;1.00;;
25107;SDS011;13090;53.422;7.670;2022-10-16T11:52:14;5.45;;;1.20;;
25107;SDS011;13090;53.422;7.670;2022-10-16T11:57:49;6.68;;;1.63;;
25107;SDS011;13090;53.422;7.670;2022-10-16T12:03:03;7.05;;;1.23;;
25107;SDS011;13090;53.422;7.670;2022-10-16T12:08:26;5.50;;;1.20;;
25107;SDS011;13090;53.422;7.670;2022-10-16T12:13:34;7.40;;;1.48;;
25107;SDS011;13090;53.422;7.670;2022-10-16T12:18:44;5.40;;;1.20;;
25107;SDS011;13090;53.422;7.670;2022-10-16T12:24:01;5.10;;;1.10;;
25107;SDS011;13090;53.422;7.670;2022-10-16T12:29:28;9.52;;;1.40;;
25107;SDS011;13090;53.422;7.670;2022-10-16T12:35:17;4.95;;;1.70;;
25107;SDS011;13090;53.422;7.670;2022-10-16T12:40:39;8.48;;;1.70;;
25107;SDS011;13090;53.422;7.670;2022-10-16T12:45:43;6.05;;;1.17;;
25107;SDS011;13090;53.422;7.670;2022-10-16T12:50:45;11.18;;;1.40;;
25107;SDS011;13090;53.422;7.670;2022-10-16T12:55:55;4.28;;;1.00;;
25107;SDS011;13090;53.422;7.670;2022-10-16T13:06:22;4.97;;;1.02;;
25107;SDS011;13090;53.422;7.670;2022-10-16T13:11:48;12.50;;;1.92;;
25107;SDS011;13090;53.422;7.670;2022-10-16T13:17:05;4.53;;;1.00;;
25107;SDS011;13090;53.422;7.670;2022-10-16T13:22:26;8.32;;;1.60;;
25107;SDS011;13090;53.422;7.670;2022-10-16T13:27:47;8.57;;;2.35;;
25107;SDS011;13090;53.422;7.670;2022-10-16T13:32:58;6.18;;;2.40;;
25107;SDS011;13090;53.422;7.670;2022-10-16T13:38:04;6.47;;;2.20;;
25107;SDS011;13090;53.422;7.670;2022-10-16T13:43:18;6.93;;;1.52;;
25107;SDS011;13090;53.422;7.670;2022-10-16T13:48:27;9.35;;;1.48;;
25107;SDS011;13090;53.422;7.670;2022-10-16T13:53:34;6.18;;;1.70;;
25107;SDS011;13090;53.422;7.670;2022-10-16T13:58:42;4.57;;;1.15;;
25107;SDS011;13090;53.422;7.670;2022-10-16T14:03:47;7.35;;;1.45;;
25107;SDS011;13090;53.422;7.670;2022-10-16T14:08:54;4.70;;;1.45;;
25107;SDS011;13090;53.422;7.670;2022-10-16T14:14:02;6.40;;;1.30;;
25107;SDS011;13090;53.422;7.670;2022-10-16T14:19:14;5.70;;;1.42;;
25107;SDS011;13090;53.422;7.670;2022-10-16T14:24:26;5.43;;;1.10;;
25107;SDS011;13090;53.422;7.670;2022-10-16T14:29:37;15.45;;;6.95;;
25107;SDS011;13090;53.422;7.670;2022-10-16T14:34:42;5.67;;;2.20;;
25107;SDS011;13090;53.422;7.670;2022-10-16T14:39:56;5.28;;;1.58;;
25107;SDS011;13090;53.422;7.670;2022-10-16T14:45:01;7.03;;;1.50;;
25107;SDS011;13090;53.422;7.670;2022-10-16T14:50:11;9.55;;;1.63;;
25107;SDS011;13090;53.422;7.670;2022-10-16T14:55:25;4.35;;;1.30;;
25107;SDS011;13090;53.422;7.670;2022-10-16T15:00:30;5.40;;;1.15;;
25107;SDS011;13090;53.422;7.670;2022-10-16T15:05:36;6.70;;;1.27;;
25107;SDS011;13090;53.422;7.670;2022-10-16T15:10:44;6.22;;;1.30;;
25107;SDS011;13090;53.422;7.670;2022-10-16T15:16:08;4.60;;;1.10;;
25107;SDS011;13090;53.422;7.670;2022-10-16T15:21:20;5.47;;;1.23;;
25107;SDS011;13090;53.422;7.670;2022-10-16T15:26:31;4.78;;;1.42;;
25107;SDS011;13090;53.422;7.670;2022-10-16T15:31:35;6.72;;;1.70;;
25107;SDS011;13090;53.422;7.670;2022-10-16T15:36:46;5.53;;;1.90;;
25107;SDS011;13090;53.422;7.670;2022-10-16T15:41:52;7.53;;;2.75;;
25107;SDS011;13090;53.422;7.670;2022-10-16T15:46:56;5.30;;;1.50;;
25107;SDS011;13090;53.422;7.670;2022-10-16T15:52:04;5.88;;;1.48;;
25107;SDS011;13090;53.422;7.670;2022-10-16T15:57:10;13.95;;;2.05;;
25107;SDS011;13090;53.422;7.670;2022-10-16T16:02:20;5.80;;;1.80;;
25107;SDS011;13090;53.422;7.670;2022-10-16T16:07:32;9.13;;;3.92;;
25107;SDS011;13090;53.422;7.670;2022-10-16T16:12:35;13.15;;;5.38;;
25107;SDS011;13090;53.422;7.670;2022-10-16T16:17:40;19.17;;;8.57;;
25107;SDS011;13090;53.422;7.670;2022-10-16T16:22:43;15.27;;;8.32;;
25107;SDS011;13090;53.422;7.670;2022-10-16T16:27:46;13.20;;;4.32;;
25107;SDS011;13090;53.422;7.670;2022-10-16T16:32:56;5.72;;;1.63;;
25107;SDS011;13090;53.422;7.670;2022-10-16T16:37:59;31.70;;;19.25;;
25107;SDS011;13090;53.422;7.670;2022-10-16T16:43:10;26.88;;;12.70;;
25107;SDS011;13090;53.422;7.670;2022-10-16T16:48:15;5.50;;;2.13;;
25107;SDS011;13090;53.422;7.670;2022-10-16T16:59:12;7.97;;;3.83;;
25107;SDS011;13090;53.422;7.670;2022-10-16T17:04:18;10.98;;;2.40;;
25107;SDS011;13090;53.422;7.670;2022-10-16T17:09:21;5.78;;;1.58;;
25107;SDS011;13090;53.422;7.670;2022-10-16T17:14:25;9.07;;;1.48;;
25107;SDS011;13090;53.422;7.670;2022-10-16T17:19:29;6.63;;;1.80;;
25107;SDS011;13090;53.422;7.670;2022-10-16T17:24:33;7.53;;;1.70;;
25107;SDS011;13090;53.422;7.670;2022-10-16T17:29:40;13.23;;;2.90;;
25107;SDS011;13090;53.422;7.670;2022-10-16T17:34:46;13.60;;;6.72;;
25107;SDS011;13090;53.422;7.670;2022-10-16T17:39:50;6.90;;;2.40;;
25107;SDS011;13090;53.422;7.670;2022-10-16T17:44:59;6.20;;;2.30;;
25107;SDS011;13090;53.422;7.670;2022-10-16T17:50:06;12.40;;;2.13;;
25107;SDS011;13090;53.422;7.670;2022-10-16T17:55:17;11.23;;;2.28;;
25107;SDS011;13090;53.422;7.670;2022-10-16T18:00:28;44.88;;;24.10;;
25107;SDS011;13090;53.422;7.670;2022-10-16T18:11:33;15.90;;;8.38;;
25107;SDS011;13090;53.422;7.670;2022-10-16T18:16:44;22.60;;;8.63;;
25107;SDS011;13090;53.422;7.670;2022-10-16T18:21:58;17.98;;;9.07;;
25107;SDS011;13090;53.422;7.670;2022-10-16T18:27:17;20.20;;;10.35;;
25107;SDS011;13090;53.422;7.670;2022-10-16T18:32:21;27.75;;;11.68;;
25107;SDS011;13090;53.422;7.670;2022-10-16T18:37:26;16.27;;;8.77;;
25107;SDS011;13090;53.422;7.670;2022-10-16T18:42:44;18.73;;;8.98;;
25107;SDS011;13090;53.422;7.670;2022-10-16T18:47:59;12.48;;;6.65;;
25107;SDS011;13090;53.422;7.670;2022-10-16T18:53:04;11.68;;;5.88;;
25107;SDS011;13090;53.422;7.670;2022-10-16T18:58:12;11.88;;;5.60;;
25107;SDS011;13090;53.422;7.670;2022-10-16T19:03:19;9.57;;;4.70;;
25107;SDS011;13090;53.422;7.670;2022-10-16T19:08:25;15.57;;;5.38;;
25107;SDS011;13090;53.422;7.670;2022-10-16T19:13:37;14.02;;;5.75;;
25107;SDS011;13090;53.422;7.670;2022-10-16T19:18:41;10.93;;;7.28;;
25107;SDS011;13090;53.422;7.670;2022-10-16T19:23:50;11.82;;;6.70;;
25107;SDS011;13090;53.422;7.670;2022-10-16T19:28:59;14.23;;;7.15;;
25107;SDS011;13090;53.422;7.670;2022-10-16T19:34:08;15.05;;;7.40;;
25107;SDS011;13090;53.422;7.670;2022-10-16T19:39:14;15.55;;;7.68;;
25107;SDS011;13090;53.422;7.670;2022-10-16T19:44:19;12.10;;;6.20;;
25107;SDS011;13090;53.422;7.670;2022-10-16T19:49:21;12.25;;;5.75;;
25107;SDS011;13090;53.422;7.670;2022-10-16T19:54:25;8.95;;;5.53;;
25107;SDS011;13090;53.422;7.670;2022-10-16T19:59:31;16.27;;;7.70;;
25107;SDS011;13090;53.422;7.670;2022-10-16T20:04:33;13.77;;;5.68;;
25107;SDS011;13090;53.422;7.670;2022-10-16T20:09:36;12.48;;;5.22;;
25107;SDS011;13090;53.422;7.670;2022-10-16T20:14:43;10.52;;;5.20;;
25107;SDS011;13090;53.422;7.670;2022-10-16T20:19:47;11.43;;;5.10;;
25107;SDS011;13090;53.422;7.670;2022-10-16T20:24:50;10.55;;;4.88;;
25107;SDS011;13090;53.422;7.670;2022-10-16T20:29:54;10.18;;;5.63;;
25107;SDS011;13090;53.422;7.670;2022-10-16T20:34:57;10.95;;;5.25;;
25107;SDS011;13090;53.422;7.670;2022-10-16T20:40:04;7.55;;;4.40;;
25107;SDS011;13090;53.422;7.670;2022-10-16T20:45:12;9.55;;;4.82;;
25107;SDS011;13090;53.422;7.670;2022-10-16T20:50:18;11.02;;;4.25;;
25107;SDS011;13090;53.422;7.670;2022-10-16T20:55:21;12.60;;;3.92;;
25107;SDS011;13090;53.422;7.670;2022-10-16T21:00:26;20.40;;;7.05;;
25107;SDS011;13090;53.422;7.670;2022-10-16T21:05:31;11.57;;;5.30;;
25107;SDS011;13090;53.422;7.670;2022-10-16T21:10:41;8.30;;;4.85;;
25107;SDS011;13090;53.422;7.670;2022-10-16T21:15:45;9.43;;;4.50;;
25107;SDS011;13090;53.422;7.670;2022-10-16T21:20:48;6.50;;;3.63;;
25107;SDS011;13090;53.422;7.670;2022-10-16T21:25:51;9.90;;;3.63;;
25107;SDS011;13090;53.422;7.670;2022-10-16T21:30:55;9.52;;;3.53;;
25107;SDS011;13090;53.422;7.670;2022-10-16T21:35:58;7.72;;;4.28;;
25107;SDS011;13090;53.422;7.670;2022-10-16T21:41:03;6.82;;;3.13;;
25107;SDS011;13090;53.422;7.670;2022-10-16T21:46:15;5.63;;;2.90;;
25107;SDS011;13090;53.422;7.670;2022-10-16T21:51:24;7.70;;;3.13;;
25107;SDS011;13090;53.422;7.670;2022-10-16T21:56:28;8.80;;;2.85;;
25107;SDS011;13090;53.422;7.670;2022-10-16T22:01:34;7.07;;;2.90;;
25107;SDS011;13090;53.422;7.670;2022-10-16T22:06:44;7.93;;;3.20;;
25107;SDS011;13090;53.422;7.670;2022-10-16T22:11:46;8.30;;;2.85;;
25107;SDS011;13090;53.422;7.670;2022-10-16T22:16:50;5.63;;;2.90;;
25107;SDS011;13090;53.422;7.670;2022-10-16T22:21:53;10.65;;;2.80;;
25107;SDS011;13090;53.422;7.670;2022-10-16T22:26:55;11.52;;;3.10;;
25107;SDS011;13090;53.422;7.670;2022-10-16T22:31:59;8.35;;;3.05;;
25107;SDS011;13090;53.422;7.670;2022-10-16T22:37:02;7.82;;;2.63;;
25107;SDS011;13090;53.422;7.670;2022-10-16T22:42:05;5.13;;;2.20;;
25107;SDS011;13090;53.422;7.670;2022-10-16T22:47:12;6.43;;;2.25;;
25107;SDS011;13090;53.422;7.670;2022-10-16T22:52:14;12.75;;;2.38;;
25107;SDS011;13090;53.422;7.670;2022-10-16T22:57:17;6.05;;;2.30;;
25107;SDS011;13090;53.422;7.670;2022-10-16T23:02:21;10.05;;;2.38;;
25107;SDS011;13090;53.422;7.670;2022-10-16T23:07:23;4.97;;;2.05;;
25107;SDS011;13090;53.422;7.670;2022-10-16T23:12:26;8.00;;;2.65;;
25107;SDS011;13090;53.422;7.670;2022-10-16T23:17:30;7.43;;;2.40;;
25107;SDS011;13090;53.422;7.670;2022-10-16T23:22:33;11.07;;;2.30;;
25107;SDS011;13090;53.422;7.670;2022-10-16T23:27:35;5.78;;;2.45;;
25107;SDS011;13090;53.422;7.670;2022-10-16T23:32:40;8.30;;;2.83;;
25107;SDS011;13090;53.422;7.670;2022-10-16T23:37:43;9.10;;;2.60;;
25107;SDS011;13090;53.422;7.670;2022-10-16T23:42:45;8.93;;;3.08;;
25107;SDS011;13090;53.422;7.670;2022-10-16T23:47:49;9.88;;;3.00;;
25107;SDS011;13090;53.422;7.670;2022-10-16T23:52:52;6.10;;;2.78;;
25107;SDS011;13090;53.422;7.670;2022-10-16T23:57:55;7.13;;;2.78;;
